Startpagina
METAR-TAF:

METAR-TAF

Vliegvelden :

Puerto Francisco de Orellana, Ecuador

breedte: 00-27-46S, lengte: 076-59-12W, hoogte: 254 m

Actueel weer

Dit bericht is 2 uur en het 15 minuten geleden gemaakt, om 23:00 UTC
Wind 7 kt uit het zuidzuidwesten
Temperatuur 24°C
Vochtigheid 89%
Druk 1014 hPa
Zicht 10 km of meer
Verspreide wolken op 2600 ft
Gebroken wolken op 10000 ft

METAR: SECO 252300Z 21007KT 9999 SCT026 BKN100 24/22 Q1014 RMK A2996

Tijdstip: 20:15 (01:15 UTC)


TAF: ontbreekt

Waarnemingen en weersverwachtingen van meer dan 4000 vliegvelden (METAR en TAF).

De beschikbare stations zijn de gele en rode punten op de kaart.

Ga met uw muis naar het station om de naam te zien.

Klik dan om waarnemingen en weersverwachtingen te zien.

kaart wijzigen: klik op de groene knoppen met een zwart kruis om in te zoomen, op de groene knop met een streepje om uit te zoomen of op de groene pijlen voor aangrenzende kaarten.


METAR-TAF: